Time;durP1;ratioP1;P1;durP2;ratioP2;P2;SDS_P1;SDS_P2;PMS_P1;PMS_P2;Temp;Humidity;BMP_temperature;BMP_pressure;BME280_temperature;BME280_humidity;BME280_pressure;Samples;Min_cycle;Max_cycle;Signal;HPM_P1;HPM_P2
2021/11/23 00:01:25;;;;;;;5.85;2.58;;;;;9.00;102916.00;;;;5100131;28;20194;-79
2021/11/23 00:03:53;;;;;;;4.35;2.88;;;;;9.00;102913.00;;;;5092511;28;20202;-79
2021/11/23 00:06:21;;;;;;;7.38;2.97;;;;;9.10;102911.00;;;;5097237;28;20194;-79
2021/11/23 00:08:48;;;;;;;5.00;3.10;;;;;9.10;102908.00;;;;5099457;28;20202;-80
2021/11/23 00:11:15;;;;;;;4.07;2.72;;;;;9.20;102908.00;;;;5102255;28;20201;-80
2021/11/23 00:13:43;;;;;;;7.80;3.05;;;;;9.20;102905.00;;;;5111886;28;20186;-79
2021/11/23 00:16:10;;;;;;;4.97;3.03;;;;;9.30;102901.00;;;;5101675;28;20538;-80
2021/11/23 00:18:37;;;;;;;5.53;3.42;;;;;9.30;102910.00;;;;5091407;28;20194;-79
2021/11/23 00:21:06;;;;;;;4.45;3.10;;;;;9.30;102905.00;;;;5090804;28;20194;-79
2021/11/23 00:23:33;;;;;;;5.07;2.50;;;;;9.40;102897.00;;;;5092350;28;20237;-79
2021/11/23 00:26:00;;;;;;;5.15;2.35;;;;;9.40;102899.00;;;;5096370;28;20214;-79
2021/11/23 00:28:28;;;;;;;5.32;2.33;;;;;9.50;102900.00;;;;5091415;28;20210;-78
2021/11/23 00:30:56;;;;;;;3.95;2.60;;;;;9.50;102895.00;;;;5092835;28;20198;-79
2021/11/23 00:33:23;;;;;;;4.38;2.28;;;;;9.60;102897.00;;;;5090628;28;20198;-79
2021/11/23 00:35:51;;;;;;;4.90;2.60;;;;;9.60;102896.00;;;;5098043;28;20198;-79
2021/11/23 00:38:20;;;;;;;3.75;2.63;;;;;9.70;102900.00;;;;5097314;28;20589;-79
2021/11/23 00:40:47;;;;;;;5.07;3.13;;;;;9.70;102897.00;;;;5096226;28;20220;-80
2021/11/23 00:43:14;;;;;;;4.50;2.45;;;;;9.80;102902.00;;;;5101469;28;20222;-79
2021/11/23 00:45:43;;;;;;;2.53;1.85;;;;;9.80;102905.00;;;;5094116;28;20681;-79
2021/11/23 00:48:11;;;;;;;4.47;2.03;;;;;9.80;102897.00;;;;5102265;28;20198;-79
2021/11/23 00:50:39;;;;;;;2.60;1.95;;;;;9.80;102897.00;;;;5099054;28;20202;-79
2021/11/23 00:53:07;;;;;;;3.80;2.40;;;;;9.90;102895.00;;;;5091248;28;20569;-79
2021/11/23 00:55:37;;;;;;;1.95;1.75;;;;;9.90;102891.00;;;;5091294;28;20187;-78
2021/11/23 00:58:04;;;;;;;3.05;2.15;;;;;9.90;102898.00;;;;5100549;28;20206;-79
2021/11/23 01:00:32;;;;;;;2.50;1.67;;;;;10.00;102904.00;;;;5090527;28;20199;-80
2021/11/23 01:02:59;;;;;;;3.80;2.10;;;;;10.00;102891.00;;;;5099154;28;20304;-80
2021/11/23 01:05:27;;;;;;;3.28;1.95;;;;;10.00;102890.00;;;;5090492;28;20201;-79
2021/11/23 01:07:55;;;;;;;4.85;1.90;;;;;10.10;102887.00;;;;5091626;28;20225;-78
2021/11/23 01:10:23;;;;;;;2.97;1.90;;;;;10.10;102888.00;;;;5094755;28;20299;-79
2021/11/23 01:12:53;;;;;;;2.70;2.00;;;;;10.10;102882.00;;;;5106811;28;20190;-79
2021/11/23 01:15:20;;;;;;;2.03;1.58;;;;;10.20;102887.00;;;;5094301;28;20197;-79
2021/11/23 01:17:48;;;;;;;2.78;1.75;;;;;10.20;102878.00;;;;5090226;28;20194;-79
2021/11/23 01:20:15;;;;;;;2.75;1.80;;;;;10.20;102880.00;;;;5090031;28;20198;-79
2021/11/23 01:22:45;;;;;;;3.10;1.80;;;;;10.20;102874.00;;;;5090681;28;20229;-79
2021/11/23 01:25:12;;;;;;;2.88;1.58;;;;;10.30;102878.00;;;;5089792;28;20194;-79
2021/11/23 01:27:40;;;;;;;2.47;1.70;;;;;10.30;102870.00;;;;5104873;28;20214;-79
2021/11/23 01:30:11;;;;;;;3.42;1.85;;;;;10.30;102877.00;;;;5094497;28;20564;-79
2021/11/23 01:32:41;;;;;;;3.00;2.03;;;;;10.30;102876.00;;;;5096520;28;20244;-79
2021/11/23 01:35:12;;;;;;;2.75;1.80;;;;;10.40;102879.00;;;;5090950;28;20205;-79
2021/11/23 01:37:41;;;;;;;3.05;2.05;;;;;10.40;102885.00;;;;5089953;28;20202;-79
2021/11/23 01:40:10;;;;;;;2.80;1.55;;;;;10.40;102883.00;;;;5090978;28;20211;-79
2021/11/23 01:42:38;;;;;;;3.50;1.90;;;;;10.50;102882.00;;;;5089839;28;20220;-78
2021/11/23 01:45:08;;;;;;;3.80;1.80;;;;;10.50;102886.00;;;;5098462;28;20193;-79
2021/11/23 01:47:37;;;;;;;3.33;1.88;;;;;10.50;102883.00;;;;5108583;28;20202;-79
2021/11/23 01:50:06;;;;;;;3.67;1.85;;;;;10.50;102889.00;;;;5097083;27;20964;-79
2021/11/23 01:52:34;;;;;;;2.15;1.60;;;;;10.60;102883.00;;;;5098571;28;20214;-79
2021/11/23 01:55:04;;;;;;;3.45;1.77;;;;;10.60;102888.00;;;;5091889;28;20198;-79
2021/11/23 01:57:31;;;;;;;2.63;1.75;;;;;10.60;102880.00;;;;5101849;28;20197;-79
2021/11/23 01:59:59;;;;;;;4.60;2.58;;;;;10.70;102890.00;;;;5106022;28;20664;-79
2021/11/23 02:02:27;;;;;;;2.50;1.73;;;;;10.70;102881.00;;;;5092067;28;20230;-79
2021/11/23 02:04:55;;;;;;;2.88;1.50;;;;;10.70;102886.00;;;;5094073;28;20209;-79
2021/11/23 02:07:22;;;;;;;3.63;1.98;;;;;10.80;102878.00;;;;5102241;28;20194;-79
2021/11/23 02:09:50;;;;;;;2.70;1.98;;;;;10.80;102880.00;;;;5089827;28;20198;-80
2021/11/23 02:12:17;;;;;;;4.20;1.70;;;;;10.80;102879.00;;;;5088489;28;20613;-81
2021/11/23 02:14:45;;;;;;;4.07;2.17;;;;;10.90;102877.00;;;;5089815;28;20202;-80
2021/11/23 02:17:12;;;;;;;2.47;1.42;;;;;10.90;102878.00;;;;5089473;28;20202;-80
2021/11/23 02:19:49;;;;;;;4.63;1.88;;;;;10.90;102873.00;;;;5089292;28;20198;-80
2021/11/23 02:22:17;;;;;;;1.73;1.58;;;;;10.90;102868.00;;;;5088710;28;20666;-80
2021/11/23 02:24:44;;;;;;;3.72;1.60;;;;;11.00;102865.00;;;;5093030;28;20205;-80
2021/11/23 02:27:12;;;;;;;3.17;1.90;;;;;11.00;102869.00;;;;5106977;28;20198;-80
2021/11/23 02:29:39;;;;;;;2.55;2.00;;;;;11.00;102867.00;;;;5108072;28;20189;-80
2021/11/23 02:32:07;;;;;;;3.22;1.65;;;;;11.10;102863.00;;;;5104777;28;20239;-80
2021/11/23 02:34:35;;;;;;;2.38;1.35;;;;;11.10;102861.00;;;;5096407;28;20194;-80
2021/11/23 02:37:04;;;;;;;2.55;1.85;;;;;11.10;102859.00;;;;5089332;28;20201;-80
2021/11/23 02:39:33;;;;;;;2.65;1.80;;;;;11.10;102852.00;;;;5089982;28;20694;-80
2021/11/23 02:42:00;;;;;;;3.88;1.95;;;;;11.10;102847.00;;;;5095164;28;20190;-80
2021/11/23 02:44:27;;;;;;;2.20;1.50;;;;;11.20;102851.00;;;;5088564;28;20233;-80
2021/11/23 02:46:54;;;;;;;2.63;1.75;;;;;11.20;102851.00;;;;5100467;28;20190;-80
2021/11/23 02:49:22;;;;;;;4.90;1.88;;;;;11.20;102845.00;;;;5103823;28;20186;-80
2021/11/23 02:51:50;;;;;;;4.18;1.70;;;;;11.20;102843.00;;;;5096761;28;20225;-80
2021/11/23 02:54:18;;;;;;;3.10;1.67;;;;;11.30;102845.00;;;;5096126;28;20639;-80
2021/11/23 02:56:45;;;;;;;2.33;1.80;;;;;11.30;102842.00;;;;5103167;28;20197;-79
2021/11/23 02:59:13;;;;;;;2.33;1.98;;;;;11.30;102845.00;;;;5094445;28;20200;-80
2021/11/23 03:01:40;;;;;;;5.97;2.05;;;;;11.30;102834.00;;;;5088959;28;20190;-81
2021/11/23 03:04:07;;;;;;;5.22;2.38;;;;;11.40;102834.00;;;;5093815;28;20218;-80
2021/11/23 03:06:34;;;;;;;2.35;1.88;;;;;11.40;102842.00;;;;5099338;28;20190;-80
2021/11/23 03:09:02;;;;;;;2.72;1.48;;;;;11.40;102847.00;;;;5109123;28;20190;-80
2021/11/23 03:11:30;;;;;;;3.83;1.92;;;;;11.40;102840.00;;;;5093916;28;20201;-81
2021/11/23 03:13:58;;;;;;;3.13;2.00;;;;;11.50;102842.00;;;;5088936;28;20221;-80
2021/11/23 03:16:25;;;;;;;2.17;1.77;;;;;11.50;102843.00;;;;5092749;28;20195;-80
2021/11/23 03:18:52;;;;;;;2.95;1.95;;;;;11.50;102834.00;;;;5088671;28;20209;-81
2021/11/23 03:21:19;;;;;;;2.50;1.73;;;;;11.50;102832.00;;;;5087510;28;20225;-80
2021/11/23 03:23:48;;;;;;;2.17;1.70;;;;;11.50;102827.00;;;;5088811;28;20210;-80
2021/11/23 03:26:15;;;;;;;4.97;2.28;;;;;11.60;102822.00;;;;5091853;28;20226;-80
2021/11/23 03:28:44;;;;;;;2.10;1.48;;;;;11.60;102827.00;;;;5092304;28;20638;-80
2021/11/23 03:31:11;;;;;;;2.55;1.70;;;;;11.60;102819.00;;;;5102506;28;20209;-80
2021/11/23 03:33:39;;;;;;;2.50;1.98;;;;;11.60;102830.00;;;;5107182;28;20664;-80
2021/11/23 03:36:06;;;;;;;2.38;1.73;;;;;11.60;102823.00;;;;5092367;28;20191;-80
2021/11/23 03:38:33;;;;;;;3.95;2.10;;;;;11.60;102821.00;;;;5096588;28;20194;-80
2021/11/23 03:41:00;;;;;;;3.03;2.03;;;;;11.60;102817.00;;;;5100755;28;20207;-79
2021/11/23 03:43:28;;;;;;;2.85;1.92;;;;;11.60;102816.00;;;;5092090;28;20233;-80
2021/11/23 03:45:56;;;;;;;2.95;1.73;;;;;11.60;102820.00;;;;5096299;28;20190;-80
2021/11/23 03:48:23;;;;;;;2.28;1.50;;;;;11.70;102810.00;;;;5099256;28;20621;-80
2021/11/23 03:50:51;;;;;;;2.83;1.70;;;;;11.70;102808.00;;;;5106856;28;20222;-80
2021/11/23 03:53:18;;;;;;;2.30;1.85;;;;;11.70;102803.00;;;;5105220;28;20193;-80
2021/11/23 03:55:49;;;;;;;3.90;1.80;;;;;11.70;102805.00;;;;5092325;28;20202;-80
2021/11/23 03:58:17;;;;;;;2.78;2.13;;;;;11.70;102803.00;;;;5107491;28;20625;-80
2021/11/23 04:00:44;;;;;;;9.88;1.80;;;;;11.70;102815.00;;;;5102679;28;20707;-80
2021/11/23 04:03:13;;;;;;;3.25;1.17;;;;;11.70;102811.00;;;;5092039;28;20912;-80
2021/11/23 04:05:40;;;;;;;3.83;1.85;;;;;11.70;102815.00;;;;5092664;28;20210;-80
2021/11/23 04:08:07;;;;;;;4.60;1.90;;;;;11.70;102816.00;;;;5092268;28;20198;-80
2021/11/23 04:10:34;;;;;;;5.45;1.75;;;;;11.80;102815.00;;;;5109522;28;20197;-80
2021/11/23 04:13:02;;;;;;;2.33;1.58;;;;;11.80;102820.00;;;;5092338;28;20605;-80
2021/11/23 04:15:29;;;;;;;3.15;1.65;;;;;11.80;102816.00;;;;5095534;28;20201;-80
2021/11/23 04:17:57;;;;;;;3.20;1.98;;;;;11.80;102823.00;;;;5110763;28;20190;-80
2021/11/23 04:20:25;;;;;;;2.15;1.50;;;;;11.80;102821.00;;;;5094425;28;20198;-80
2021/11/23 04:22:53;;;;;;;3.30;1.58;;;;;11.90;102825.00;;;;5093128;28;20225;-80
2021/11/23 04:25:20;;;;;;;2.83;1.60;;;;;11.90;102831.00;;;;5091285;28;20190;-81
2021/11/23 04:27:48;;;;;;;2.92;1.77;;;;;11.90;102827.00;;;;5106693;28;20210;-81
2021/11/23 04:30:17;;;;;;;2.47;1.63;;;;;11.90;102823.00;;;;5095346;28;20217;-81
2021/11/23 04:32:44;;;;;;;2.47;1.63;;;;;12.00;102826.00;;;;5093023;28;20194;-81
2021/11/23 04:35:13;;;;;;;4.18;2.03;;;;;12.00;102829.00;;;;5090597;28;20199;-81
2021/11/23 04:37:43;;;;;;;4.78;1.50;;;;;12.00;102821.00;;;;5091902;28;20201;-81
2021/11/23 04:40:13;;;;;;;2.97;1.92;;;;;12.00;102825.00;;;;5094644;28;20197;-80
2021/11/23 04:42:40;;;;;;;3.08;1.90;;;;;12.10;102821.00;;;;5091562;28;20226;-81
2021/11/23 04:45:10;;;;;;;3.10;2.25;;;;;12.10;102825.00;;;;5090473;28;20224;-81
2021/11/23 04:47:38;;;;;;;2.38;1.80;;;;;12.10;102814.00;;;;5091516;28;20199;-80
2021/11/23 04:50:07;;;;;;;3.78;2.25;;;;;12.10;102817.00;;;;5093798;28;20656;-80
2021/11/23 04:52:35;;;;;;;3.03;2.30;;;;;12.20;102814.00;;;;5090802;28;20229;-81
2021/11/23 04:55:04;;;;;;;2.83;2.00;;;;;12.10;102815.00;;;;5092203;28;20208;-80
2021/11/23 04:57:31;;;;;;;2.70;1.52;;;;;12.20;102804.00;;;;5091400;28;20198;-81
2021/11/23 05:00:00;;;;;;;3.00;2.10;;;;;12.20;102805.00;;;;5091591;28;20187;-80
2021/11/23 05:02:27;;;;;;;3.63;1.77;;;;;12.20;102806.00;;;;5097260;28;20197;-81
2021/11/23 05:04:54;;;;;;;3.35;1.70;;;;;12.20;102802.00;;;;5093943;28;20226;-81
2021/11/23 05:07:22;;;;;;;3.95;2.15;;;;;12.30;102806.00;;;;5090334;28;20218;-81
2021/11/23 05:09:49;;;;;;;3.38;1.95;;;;;12.30;102807.00;;;;5103059;28;20197;-81
2021/11/23 05:12:18;;;;;;;2.67;1.70;;;;;12.20;102802.00;;;;5092923;28;20217;-80
2021/11/23 05:14:45;;;;;;;2.97;2.10;;;;;12.30;102799.00;;;;5092665;28;20198;-81
2021/11/23 05:17:12;;;;;;;2.30;1.77;;;;;12.30;102797.00;;;;5096875;28;20193;-80
2021/11/23 05:19:39;;;;;;;2.03;1.20;;;;;12.30;102797.00;;;;5109337;28;20200;-80
2021/11/23 05:22:07;;;;;;;3.20;1.90;;;;;12.30;102800.00;;;;5094409;28;20197;-81
2021/11/23 05:24:34;;;;;;;6.53;1.88;;;;;12.40;102809.00;;;;5096062;28;20233;-81
2021/11/23 05:27:02;;;;;;;3.88;2.03;;;;;12.40;102792.00;;;;5089684;28;20194;-81
2021/11/23 05:29:30;;;;;;;3.13;1.92;;;;;12.40;102796.00;;;;5091556;28;20223;-80
2021/11/23 05:31:58;;;;;;;2.38;1.92;;;;;12.40;102795.00;;;;5097598;28;20192;-81
2021/11/23 05:34:25;;;;;;;3.33;1.92;;;;;12.40;102806.00;;;;5103104;28;20198;-81
2021/11/23 05:36:52;;;;;;;3.90;1.95;;;;;12.40;102796.00;;;;5110381;28;20664;-81
2021/11/23 05:39:20;;;;;;;3.17;1.77;;;;;12.40;102799.00;;;;5105931;28;20190;-81
2021/11/23 05:41:49;;;;;;;2.58;1.85;;;;;12.40;102793.00;;;;5100457;28;20198;-81
2021/11/23 05:44:16;;;;;;;3.22;2.22;;;;;12.40;102799.00;;;;5097718;28;20960;-80
2021/11/23 05:46:45;;;;;;;2.50;2.13;;;;;12.40;102803.00;;;;5101168;28;20205;-80
2021/11/23 05:49:15;;;;;;;3.15;2.15;;;;;12.50;102795.00;;;;5099558;28;20190;-81
2021/11/23 05:51:42;;;;;;;4.30;2.08;;;;;12.50;102804.00;;;;5089279;28;20719;-81
2021/11/23 05:54:09;;;;;;;2.53;1.73;;;;;12.50;102794.00;;;;5089320;28;20191;-81
2021/11/23 05:56:37;;;;;;;3.13;2.30;;;;;12.50;102799.00;;;;5090028;28;20707;-80
2021/11/23 05:59:04;;;;;;;4.20;2.22;;;;;12.50;102808.00;;;;5091466;28;20194;-81
2021/11/23 06:01:31;;;;;;;3.85;1.90;;;;;12.50;102811.00;;;;5101850;28;20247;-81
2021/11/23 06:04:00;;;;;;;3.05;1.80;;;;;12.50;102808.00;;;;5098402;28;20274;-81
2021/11/23 06:06:27;;;;;;;3.13;1.95;;;;;12.60;102811.00;;;;5090043;28;20202;-81
2021/11/23 06:08:55;;;;;;;3.97;2.00;;;;;12.60;102809.00;;;;5090250;28;20664;-80
2021/11/23 06:11:22;;;;;;;2.92;2.08;;;;;12.60;102806.00;;;;5089294;28;20198;-80
2021/11/23 06:13:49;;;;;;;4.78;2.33;;;;;12.60;102800.00;;;;5090511;28;20201;-80
2021/11/23 06:16:16;;;;;;;3.58;2.17;;;;;12.60;102802.00;;;;5088563;28;20206;-79
2021/11/23 06:18:44;;;;;;;3.83;2.13;;;;;12.60;102806.00;;;;5096565;28;20198;-79
2021/11/23 06:21:12;;;;;;;3.25;2.55;;;;;12.60;102804.00;;;;5100723;28;20202;-79
2021/11/23 06:23:39;;;;;;;3.03;2.05;;;;;12.60;102804.00;;;;5098312;28;20222;-81
2021/11/23 06:26:08;;;;;;;3.67;2.10;;;;;12.60;102803.00;;;;5104275;28;20197;-81
2021/11/23 06:28:35;;;;;;;3.15;2.40;;;;;12.60;102809.00;;;;5103260;28;20213;-80
2021/11/23 06:31:03;;;;;;;2.85;2.25;;;;;12.60;102819.00;;;;5110065;28;20293;-80
2021/11/23 06:33:30;;;;;;;3.10;1.92;;;;;12.60;102814.00;;;;5108836;28;20247;-81
2021/11/23 06:35:57;;;;;;;2.30;2.10;;;;;12.60;102817.00;;;;5109863;28;20214;-81
2021/11/23 06:38:26;;;;;;;2.42;2.10;;;;;12.60;102824.00;;;;5099616;28;20687;-80
2021/11/23 06:40:53;;;;;;;2.78;1.67;;;;;12.70;102819.00;;;;5104865;28;20200;-81
2021/11/23 06:43:20;;;;;;;3.60;1.83;;;;;12.70;102818.00;;;;5094150;28;20194;-81
2021/11/23 06:45:48;;;;;;;3.20;2.38;;;;;12.70;102814.00;;;;5091522;28;20216;-80
2021/11/23 06:48:15;;;;;;;3.00;1.95;;;;;12.70;102824.00;;;;5088730;28;20205;-80
2021/11/23 06:50:43;;;;;;;3.10;2.40;;;;;12.70;102820.00;;;;5097377;28;20197;-80
2021/11/23 06:53:13;;;;;;;3.83;2.05;;;;;12.60;102827.00;;;;5091541;28;20688;-80
2021/11/23 06:55:42;;;;;;;2.58;1.65;;;;;12.60;102834.00;;;;5088855;28;20252;-80
2021/11/23 06:58:10;;;;;;;3.17;2.20;;;;;12.70;102821.00;;;;5095152;28;20185;-79
2021/11/23 07:00:37;;;;;;;4.07;2.13;;;;;12.70;102834.00;;;;5097418;28;20200;-79
2021/11/23 07:03:04;;;;;;;4.93;2.40;;;;;12.70;102841.00;;;;5088077;28;20208;-79
2021/11/23 07:05:32;;;;;;;2.58;1.98;;;;;12.70;102840.00;;;;5096622;28;20217;-79
2021/11/23 07:07:59;;;;;;;3.80;2.20;;;;;12.70;102832.00;;;;5088809;28;20202;-79
2021/11/23 07:10:27;;;;;;;2.95;2.05;;;;;12.70;102836.00;;;;5088065;28;20198;-78
2021/11/23 07:12:55;;;;;;;3.53;2.17;;;;;12.70;102830.00;;;;5099134;28;20198;-79
2021/11/23 07:15:22;;;;;;;3.35;1.95;;;;;12.80;102842.00;;;;5106344;28;20208;-78
2021/11/23 07:17:50;;;;;;;2.28;2.00;;;;;12.80;102849.00;;;;5108464;28;20207;-78
2021/11/23 07:20:17;;;;;;;4.13;2.20;;;;;12.80;102845.00;;;;5093142;28;20621;-79
2021/11/23 07:22:44;;;;;;;3.45;2.08;;;;;12.80;102854.00;;;;5094021;28;20275;-79
2021/11/23 07:25:12;;;;;;;2.88;2.10;;;;;12.80;102850.00;;;;5107726;28;20228;-79
2021/11/23 07:27:39;;;;;;;3.10;2.25;;;;;12.90;102843.00;;;;5108448;28;20599;-79
2021/11/23 07:30:09;;;;;;;2.47;1.67;;;;;12.80;102851.00;;;;5093298;28;20210;-79
2021/11/23 07:32:37;;;;;;;3.22;2.15;;;;;12.90;102853.00;;;;5088163;28;20214;-79
2021/11/23 07:35:05;;;;;;;2.20;1.85;;;;;12.90;102856.00;;;;5091232;28;20583;-81
2021/11/23 07:37:36;;;;;;;2.33;2.00;;;;;12.90;102858.00;;;;5097328;28;20198;-79
2021/11/23 07:40:06;;;;;;;3.72;2.28;;;;;12.90;102861.00;;;;5096774;28;20862;-79
2021/11/23 07:42:34;;;;;;;4.55;2.08;;;;;13.00;102869.00;;;;5098990;28;20190;-79
2021/11/23 07:45:01;;;;;;;2.22;1.70;;;;;13.00;102864.00;;;;5094782;28;20225;-79
2021/11/23 07:47:29;;;;;;;3.03;2.30;;;;;13.00;102857.00;;;;5097501;28;20204;-79
2021/11/23 07:49:57;;;;;;;3.40;2.38;;;;;13.00;102865.00;;;;5108254;28;20200;-79
2021/11/23 07:52:24;;;;;;;6.70;3.25;;;;;13.00;102872.00;;;;5103860;28;20225;-80
2021/11/23 07:55:03;;;;;;;6.05;3.70;;;;;13.00;102880.00;;;;5108568;28;20194;-79
2021/11/23 07:57:31;;;;;;;13.63;8.00;;;;;13.10;102879.00;;;;5096952;28;20262;-78
2021/11/23 08:00:05;;;;;;;15.32;8.93;;;;;13.10;102876.00;;;;5096099;28;20190;-80
2021/11/23 08:02:34;;;;;;;14.98;9.13;;;;;13.10;102886.00;;;;5087987;28;20220;-81
2021/11/23 08:05:01;;;;;;;14.48;7.97;;;;;13.20;102884.00;;;;5090714;28;20221;-81
2021/11/23 08:07:31;;;;;;;10.88;7.47;;;;;13.20;102883.00;;;;5100753;28;20225;-81
2021/11/23 08:09:58;;;;;;;11.63;7.60;;;;;13.20;102884.00;;;;5089083;28;20194;-81
2021/11/23 08:12:26;;;;;;;9.85;7.00;;;;;13.30;102884.00;;;;5102252;28;20190;-80
2021/11/23 08:14:53;;;;;;;10.85;6.32;;;;;13.30;102896.00;;;;5094918;28;20247;-81
2021/11/23 08:17:21;;;;;;;10.48;5.75;;;;;13.30;102889.00;;;;5102869;28;20186;-81
2021/11/23 08:19:50;;;;;;;6.82;4.80;;;;;13.40;102905.00;;;;5102038;28;20190;-81
2021/11/23 08:22:17;;;;;;;5.82;4.55;;;;;13.40;102895.00;;;;5095737;28;20197;-81
2021/11/23 08:24:45;;;;;;;6.22;4.65;;;;;13.50;102899.00;;;;5097342;28;20754;-80
2021/11/23 08:27:12;;;;;;;6.28;4.47;;;;;13.50;102895.00;;;;5105445;28;20194;-81
2021/11/23 08:29:39;;;;;;;6.43;4.28;;;;;13.60;102901.00;;;;5108817;28;20200;-81
2021/11/23 08:32:07;;;;;;;5.78;3.50;;;;;13.60;102898.00;;;;5095036;28;20206;-81
2021/11/23 08:34:35;;;;;;;5.15;2.60;;;;;13.70;102888.00;;;;5096502;28;20651;-81
2021/11/23 08:37:03;;;;;;;4.00;2.50;;;;;13.70;102898.00;;;;5101818;28;20200;-81
2021/11/23 08:39:31;;;;;;;2.95;2.58;;;;;13.80;102890.00;;;;5097377;28;20194;-81
2021/11/23 08:41:58;;;;;;;4.20;2.30;;;;;13.80;102903.00;;;;5108751;28;20197;-81
2021/11/23 08:44:26;;;;;;;3.42;1.88;;;;;13.90;102896.00;;;;5090413;28;20226;-81
2021/11/23 08:46:56;;;;;;;3.83;2.05;;;;;13.90;102901.00;;;;5092012;28;20625;-81
2021/11/23 08:49:23;;;;;;;2.85;2.08;;;;;13.90;102899.00;;;;5109347;28;20581;-81
2021/11/23 08:51:53;;;;;;;3.88;1.83;;;;;14.00;102905.00;;;;5104340;28;20222;-81
2021/11/23 08:54:22;;;;;;;2.53;1.95;;;;;14.00;102916.00;;;;5103136;28;20204;-81
2021/11/23 08:56:58;;;;;;;3.03;1.70;;;;;14.10;102920.00;;;;5101479;28;20195;-81
2021/11/23 08:59:25;;;;;;;3.50;2.17;;;;;14.20;102912.00;;;;5105101;28;20209;-81
2021/11/23 09:01:52;;;;;;;2.53;1.95;;;;;14.20;102917.00;;;;5107192;28;20201;-81
2021/11/23 09:04:19;;;;;;;6.93;2.55;;;;;14.30;102916.00;;;;5091044;28;20195;-80
2021/11/23 09:06:47;;;;;;;3.40;2.42;;;;;14.30;102911.00;;;;5100659;28;20941;-80
2021/11/23 09:09:14;;;;;;;3.47;2.22;;;;;14.40;102910.00;;;;5094907;28;20759;-81
2021/11/23 09:11:43;;;;;;;2.65;2.13;;;;;14.40;102888.00;;;;5104555;28;20193;-81
2021/11/23 09:14:11;;;;;;;2.40;1.83;;;;;14.50;102896.00;;;;5096045;28;20205;-81
2021/11/23 09:16:38;;;;;;;1.73;1.60;;;;;14.50;102896.00;;;;5095828;28;20659;-81
2021/11/23 09:19:06;;;;;;;3.33;1.95;;;;;14.60;102911.00;;;;5092619;28;20195;-80
2021/11/23 09:21:33;;;;;;;2.50;1.58;;;;;14.70;102905.00;;;;5103304;28;20213;-80
2021/11/23 09:24:01;;;;;;;11.52;2.40;;;;;14.70;102911.00;;;;5101941;28;20209;-79
2021/11/23 09:26:29;;;;;;;3.00;1.90;;;;;14.80;102901.00;;;;5096367;28;20413;-80
2021/11/23 09:28:59;;;;;;;4.70;1.90;;;;;14.80;102900.00;;;;5095137;28;20231;-80
2021/11/23 09:31:26;;;;;;;2.72;1.75;;;;;14.90;102913.00;;;;5094016;28;20194;-80
2021/11/23 09:33:54;;;;;;;4.57;1.80;;;;;15.00;102914.00;;;;5093391;28;20573;-80
2021/11/23 09:36:21;;;;;;;3.05;1.60;;;;;15.00;102911.00;;;;5097584;28;20198;-81
2021/11/23 09:38:49;;;;;;;5.43;2.03;;;;;15.10;102912.00;;;;5105888;28;20190;-81
2021/11/23 09:41:16;;;;;;;2.33;1.48;;;;;15.20;102917.00;;;;5099459;28;20559;-81
2021/11/23 09:43:44;;;;;;;8.25;2.00;;;;;15.20;102920.00;;;;5096948;28;20201;-81
2021/11/23 09:46:13;;;;;;;2.80;1.33;;;;;15.20;102916.00;;;;5104298;28;20308;-81
2021/11/23 09:48:42;;;;;;;2.55;1.60;;;;;15.30;102922.00;;;;5090105;28;20190;-81
2021/11/23 09:51:14;;;;;;;1.90;1.60;;;;;15.30;102918.00;;;;5098615;28;20253;-80
2021/11/23 09:53:41;;;;;;;4.30;1.38;;;;;15.40;102915.00;;;;5097931;28;20209;-81
2021/11/23 09:56:09;;;;;;;2.92;1.73;;;;;15.50;102915.00;;;;5094012;28;20194;-80
2021/11/23 09:58:36;;;;;;;2.58;1.60;;;;;15.50;102917.00;;;;5101432;28;20655;-81
2021/11/23 10:01:06;;;;;;;4.90;1.92;;;;;15.60;102919.00;;;;5090970;28;20576;-80
2021/11/23 10:03:36;;;;;;;2.90;1.45;;;;;15.60;102919.00;;;;5102976;28;20201;-80
2021/11/23 10:06:09;;;;;;;1.63;1.42;;;;;15.70;102913.00;;;;5108366;28;20221;-81
2021/11/23 10:08:37;;;;;;;3.47;1.65;;;;;15.70;102917.00;;;;5089267;28;20213;-81
2021/11/23 10:11:05;;;;;;;2.30;1.60;;;;;15.80;102919.00;;;;5088449;28;20202;-81
2021/11/23 10:13:44;;;;;;;5.63;1.80;;;;;15.70;102915.00;;;;5088007;28;20699;-80
2021/11/23 10:16:12;;;;;;;3.00;1.20;;;;;15.90;102919.00;;;;5088486;28;20205;-81
2021/11/23 10:18:41;;;;;;;1.35;1.25;;;;;15.90;102919.00;;;;5088901;28;20201;-81
2021/11/23 10:21:12;;;;;;;2.50;1.48;;;;;16.00;102914.00;;;;5103837;28;20213;-80
2021/11/23 10:23:41;;;;;;;2.05;1.60;;;;;16.00;102914.00;;;;5095580;28;20201;-81
2021/11/23 10:26:13;;;;;;;2.95;1.50;;;;;16.00;102911.00;;;;5100050;28;20241;-80
2021/11/23 10:28:43;;;;;;;1.70;1.30;;;;;16.00;102912.00;;;;5087745;28;20229;-80
2021/11/23 10:31:13;;;;;;;2.28;1.25;;;;;16.10;102905.00;;;;5087604;28;20187;-80
2021/11/23 10:33:43;;;;;;;2.22;1.15;;;;;16.10;102909.00;;;;5090989;28;20660;-81
2021/11/23 10:36:14;;;;;;;2.90;1.90;;;;;16.10;102907.00;;;;5095011;28;20205;-80
2021/11/23 10:38:42;;;;;;;2.35;1.58;;;;;16.10;102905.00;;;;5097600;28;20208;-81
2021/11/23 10:41:12;;;;;;;2.05;1.27;;;;;16.20;102904.00;;;;5095491;28;20206;-80
2021/11/23 10:43:42;;;;;;;1.90;1.35;;;;;16.20;102909.00;;;;5101594;28;20205;-81
2021/11/23 10:46:14;;;;;;;2.50;1.27;;;;;16.30;102905.00;;;;5095604;28;20221;-81
2021/11/23 10:48:52;;;;;;;1.48;1.02;;;;;16.40;102899.00;;;;5102952;28;20213;-81
2021/11/23 10:51:20;;;;;;;1.63;1.00;;;;;16.50;102904.00;;;;5099265;28;20224;-81
2021/11/23 10:53:48;;;;;;;1.10;0.73;;;;;16.60;102904.00;;;;5095715;28;20201;-80
2021/11/23 10:56:18;;;;;;;2.67;0.93;;;;;16.70;102902.00;;;;5103936;28;20208;-82
2021/11/23 10:58:47;;;;;;;3.10;0.75;;;;;16.80;102899.00;;;;5088660;28;20671;-81
2021/11/23 11:01:15;;;;;;;2.47;0.52;;;;;16.90;102903.00;;;;5087856;28;20190;-82
2021/11/23 11:03:44;;;;;;;2.53;0.50;;;;;16.90;102897.00;;;;5087819;28;20197;-82
2021/11/23 11:06:15;;;;;;;0.93;0.60;;;;;16.90;102896.00;;;;5097867;28;20220;-83
2021/11/23 11:08:45;;;;;;;1.83;0.90;;;;;16.90;102891.00;;;;5092585;28;20206;-84
2021/11/23 11:11:16;;;;;;;1.67;0.60;;;;;17.00;102891.00;;;;5091708;28;20201;-83
2021/11/23 11:13:48;;;;;;;2.35;0.50;;;;;16.90;102889.00;;;;5088018;28;20205;-83
2021/11/23 11:16:20;;;;;;;0.70;0.25;;;;;17.00;102881.00;;;;5088458;28;20195;-83
2021/11/23 11:19:12;;;;;;;0.47;0.25;;;;;16.80;102879.00;;;;5105567;28;20586;-84
2021/11/23 11:22:05;;;;;;;0.85;0.20;;;;;16.90;102884.00;;;;5101073;28;20225;-82
2021/11/23 11:24:37;;;;;;;0.95;0.20;;;;;16.90;102886.00;;;;5090216;28;20190;-82
2021/11/23 11:27:14;;;;;;;0.82;0.22;;;;;16.90;102884.00;;;;5101636;28;20225;-82
2021/11/23 11:29:43;;;;;;;2.00;0.30;;;;;16.90;102883.00;;;;5098714;28;20637;-82
2021/11/23 11:32:32;;;;;;;0.77;0.40;;;;;16.80;102886.00;;;;5102369;28;20208;-83
2021/11/23 11:35:23;;;;;;;1.52;0.25;;;;;16.80;102873.00;;;;5093613;28;20202;-81
2021/11/23 11:37:51;;;;;;;0.93;0.32;;;;;16.90;102874.00;;;;5087802;28;20585;-82
2021/11/23 11:40:25;;;;;;;1.27;0.40;;;;;16.90;102880.00;;;;5102576;28;20212;-82
2021/11/23 11:43:01;;;;;;;1.05;0.40;;;;;16.90;102878.00;;;;5100815;28;20190;-82
2021/11/23 11:45:40;;;;;;;1.27;0.35;;;;;16.90;102869.00;;;;5108149;28;20225;-81
2021/11/23 11:48:42;;;;;;;2.28;0.50;;;;;16.90;102869.00;;;;5099757;28;20239;-82
2021/11/23 11:51:18;;;;;;;0.80;0.40;;;;;17.00;102872.00;;;;5101320;28;20216;-82
2021/11/23 11:53:47;;;;;;;0.70;0.52;;;;;17.00;102868.00;;;;5100389;28;20212;-81
2021/11/23 11:56:37;;;;;;;0.77;0.55;;;;;17.00;102872.00;;;;5108486;28;20223;-82
2021/11/23 11:59:05;;;;;;;2.60;0.40;;;;;17.10;102863.00;;;;5098343;28;20275;-82
2021/11/23 12:01:34;;;;;;;1.42;0.20;;;;;17.10;102861.00;;;;5096520;28;20190;-83
2021/11/23 12:04:10;;;;;;;1.23;0.20;;;;;17.10;102865.00;;;;5112314;28;20189;-82
2021/11/23 12:07:02;;;;;;;0.70;0.20;;;;;17.10;102863.00;;;;5097966;28;20233;-82
2021/11/23 12:09:32;;;;;;;0.55;0.20;;;;;17.20;102864.00;;;;5101513;28;20687;-82
2021/11/23 12:12:17;;;;;;;0.75;0.15;;;;;17.20;102860.00;;;;5111816;28;20209;-82
2021/11/23 12:14:53;;;;;;;0.40;0.10;;;;;17.20;102857.00;;;;5111951;28;20193;-82
2021/11/23 12:17:28;;;;;;;1.27;0.20;;;;;17.20;102853.00;;;;5110787;28;20697;-82